createdAt,value
2023-05-04T00:00:19.917Z,102528.88
2023-05-04T00:01:24.115Z,102531.44
2023-05-04T00:02:25.787Z,102538.31
2023-05-04T00:03:27.597Z,102535.66
2023-05-04T00:04:29.269Z,102546.06
2023-05-04T00:05:30.870Z,102542.56
2023-05-04T00:06:32.856Z,102533.84
2023-05-04T00:07:34.923Z,102538.19
2023-05-04T00:08:36.496Z,102543.44
2023-05-04T00:09:38.245Z,102539.91
2023-05-04T00:10:39.872Z,102535.56
2023-05-04T00:11:41.794Z,102539.88
2023-05-04T00:12:43.406Z,102541.59
2023-05-04T00:13:45.018Z,102539.03
2023-05-04T00:14:46.683Z,102542.47
2023-05-04T00:15:48.357Z,102537.22
2023-05-04T00:16:50.057Z,102537.13
2023-05-04T00:17:51.791Z,102539.69
2023-05-04T00:18:53.635Z,102537.88
2023-05-04T00:19:55.200Z,102532.56
2023-05-04T00:20:56.793Z,102536.78
2023-05-04T00:21:58.400Z,102534.09
2023-05-04T00:23:00.036Z,102535.75
2023-05-04T00:24:02.398Z,102533.91
2023-05-04T00:25:04.674Z,102532.13
2023-05-04T00:26:06.261Z,102534.72
2023-05-04T00:27:07.944Z,102535.56
2023-05-04T00:28:09.576Z,102530.31
2023-05-04T00:29:11.332Z,102528.59
2023-05-04T00:30:13.039Z,102529.44
2023-05-04T00:31:15.160Z,102521.69
2023-05-04T00:32:16.800Z,102523.38
2023-05-04T00:33:18.553Z,102522.56
2023-05-04T00:34:20.185Z,102525.16
2023-05-04T00:35:21.888Z,102525.16
2023-05-04T00:36:24.579Z,102518.25
2023-05-04T00:37:26.244Z,102521.69
2023-05-04T00:38:28.033Z,102526.88
2023-05-04T00:39:29.764Z,102528.59
2023-05-04T00:40:31.531Z,102531.19
2023-05-04T00:41:33.149Z,102530.31
2023-05-04T00:42:34.831Z,102522.44
2023-05-04T00:43:36.829Z,102525.81
2023-05-04T00:44:41.505Z,102522.25
2023-05-04T00:45:43.296Z,102520.47
2023-05-04T00:46:44.901Z,102522.94
2023-05-04T00:47:49.304Z,102524.63
2023-05-04T00:48:52.312Z,102518.50
2023-05-04T00:49:54.367Z,102521.00
2023-05-04T00:50:56.446Z,102520.13
2023-05-04T00:51:58.997Z,102512.31
2023-05-04T00:53:07.359Z,102518.31
2023-05-04T00:54:09.194Z,102513.97
2023-05-04T00:55:11.377Z,102509.59
2023-05-04T00:56:14.008Z,102507.84
2023-05-04T00:57:16.683Z,102508.63
2023-05-04T00:58:18.928Z,102511.16
2023-05-04T00:59:20.552Z,102507.66
2023-05-04T01:00:22.648Z,102509.34
2023-05-04T01:01:26.027Z,102507.59
2023-05-04T01:02:30.181Z,102503.19
2023-05-04T01:03:33.655Z,102501.50
2023-05-04T01:04:35.593Z,102505.78
2023-05-04T01:05:43.240Z,102497.13
2023-05-04T01:06:49.007Z,102504.94
2023-05-04T01:08:08.557Z,102502.28
2023-05-04T01:09:10.800Z,102501.22
2023-05-04T01:10:17.755Z,102504.50
2023-05-04T01:11:30.857Z,102497.47
2023-05-04T01:12:38.233Z,102493.81
2023-05-04T01:13:40.549Z,102500.75
2023-05-04T01:14:43.725Z,102499.84
2023-05-04T01:15:46.617Z,102498.94
2023-05-04T01:16:48.580Z,102498.94
2023-05-04T01:17:50.227Z,102496.34
2023-05-04T01:18:51.914Z,102493.69
2023-05-04T01:19:54.098Z,102493.75
2023-05-04T01:20:55.819Z,102489.44
2023-05-04T01:21:58.574Z,102492.03
2023-05-04T01:23:00.487Z,102489.44
2023-05-04T01:24:02.055Z,102483.34
2023-05-04T01:25:04.719Z,102485.94
2023-05-04T01:26:23.965Z,102492.88
2023-05-04T01:27:42.449Z,102491.91
2023-05-04T01:28:48.951Z,102491.84
2023-05-04T01:30:06.063Z,102489.25
2023-05-04T01:31:13.599Z,102487.41
2023-05-04T01:32:18.632Z,102489.09
2023-05-04T01:33:21.676Z,102483.91
2023-05-04T01:34:23.319Z,102486.47
2023-05-04T01:35:25.575Z,102489.94
2023-05-04T01:36:27.490Z,102482.09
2023-05-04T01:37:29.450Z,102479.50
2023-05-04T01:38:31.823Z,102485.47
2023-05-04T01:39:34.865Z,102481.06
2023-05-04T01:40:37.079Z,102480.25
2023-05-04T01:41:38.733Z,102487.13
2023-05-04T01:42:40.369Z,102490.50
2023-05-04T01:43:42.243Z,102482.66
2023-05-04T01:44:43.976Z,102485.16
2023-05-04T01:45:45.532Z,102484.31
2023-05-04T01:46:47.502Z,102479.94
2023-05-04T01:47:49.404Z,102481.66
2023-05-04T01:48:51.338Z,102485.91
2023-05-04T01:49:53.192Z,102480.63
2023-05-04T01:50:54.870Z,102482.31
2023-05-04T01:51:56.507Z,102486.53
2023-05-04T01:53:00.054Z,102480.41
2023-05-04T01:54:01.820Z,102483.81
2023-05-04T01:55:03.620Z,102484.53
2023-05-04T01:56:07.775Z,102486.22
2023-05-04T01:57:09.537Z,102480.94
2023-05-04T01:58:11.304Z,102482.69
2023-05-04T01:59:12.996Z,102480.91
2023-05-04T02:00:15.884Z,102482.63
2023-05-04T02:01:17.523Z,102482.59
2023-05-04T02:02:19.222Z,102482.53
2023-05-04T02:03:20.994Z,102485.09
2023-05-04T02:04:22.752Z,102484.13
2023-05-04T02:05:24.343Z,102480.56
2023-05-04T02:06:25.935Z,102468.38
2023-05-04T02:07:27.723Z,102476.13
2023-05-04T02:08:29.487Z,102475.22
2023-05-04T02:09:31.784Z,102475.16
2023-05-04T02:10:33.427Z,102478.59
2023-05-04T02:11:35.190Z,102482.03
2023-05-04T02:12:36.863Z,102481.97
2023-05-04T02:13:38.864Z,102476.78
2023-05-04T02:14:40.600Z,102473.31
2023-05-04T02:15:42.477Z,102474.25
2023-05-04T02:16:44.248Z,102475.94
2023-05-04T02:17:46.912Z,102475.91
2023-05-04T02:18:48.556Z,102481.97
2023-05-04T02:19:50.653Z,102475.84
2023-05-04T02:20:52.256Z,102474.03
2023-05-04T02:21:53.813Z,102477.47
2023-05-04T02:22:56.804Z,102480.84
2023-05-04T02:24:00.150Z,102478.19
2023-05-04T02:25:02.324Z,102474.69
2023-05-04T02:26:03.876Z,102474.69
2023-05-04T02:27:05.840Z,102470.34
2023-05-04T02:28:07.799Z,102472.06
2023-05-04T02:29:09.530Z,102467.75
2023-05-04T02:30:11.847Z,102463.41
2023-05-04T02:31:13.502Z,102469.41
2023-05-04T02:32:15.524Z,102471.91
2023-05-04T02:33:17.159Z,102469.22
2023-05-04T02:34:18.784Z,102469.22
2023-05-04T02:35:26.280Z,102470.03
2023-05-04T02:36:28.368Z,102470.03
2023-05-04T02:37:29.945Z,102465.72
2023-05-04T02:38:31.549Z,102466.53
2023-05-04T02:39:33.108Z,102467.41
2023-05-04T02:40:36.852Z,102470.00
2023-05-04T02:41:39.260Z,102466.50
2023-05-04T02:42:40.924Z,102463.00
2023-05-04T02:43:42.570Z,102466.44
2023-05-04T02:44:44.208Z,102469.03
2023-05-04T02:45:45.872Z,102466.44
2023-05-04T02:46:47.532Z,102469.00
2023-05-04T02:47:49.256Z,102475.09
2023-05-04T02:48:50.806Z,102466.34
2023-05-04T02:49:52.504Z,102470.66
2023-05-04T02:50:54.171Z,102468.06
2023-05-04T02:51:55.902Z,102468.03
2023-05-04T02:52:57.542Z,102465.34
2023-05-04T02:53:59.128Z,102473.06
2023-05-04T02:55:02.178Z,102465.25
2023-05-04T02:56:03.919Z,102475.56
2023-05-04T02:57:06.412Z,102466.88
2023-05-04T02:58:07.969Z,102464.28
2023-05-04T02:59:09.824Z,102471.16
2023-05-04T03:00:11.814Z,102465.91
2023-05-04T03:01:13.466Z,102465.88
2023-05-04T03:02:15.045Z,102463.22
2023-05-04T03:03:16.573Z,102464.03
2023-05-04T03:04:18.230Z,102460.59
2023-05-04T03:05:20.453Z,102460.59
2023-05-04T03:06:22.176Z,102452.75
2023-05-04T03:07:23.807Z,102461.34
2023-05-04T03:08:25.748Z,102459.53
2023-05-04T03:09:27.452Z,102457.75
2023-05-04T03:10:31.500Z,102460.31
2023-05-04T03:11:33.108Z,102460.25
2023-05-04T03:12:34.845Z,102462.03
2023-05-04T03:13:36.545Z,102455.06
2023-05-04T03:14:38.373Z,102455.13
2023-05-04T03:15:40.790Z,102453.44
2023-05-04T03:16:42.699Z,102458.63
2023-05-04T03:17:44.737Z,102454.34
2023-05-04T03:18:58.723Z,102458.66
2023-05-04T03:20:00.621Z,102454.34
2023-05-04T03:21:04.633Z,102446.53
2023-05-04T03:22:07.006Z,102448.25
2023-05-04T03:23:08.591Z,102449.88
2023-05-04T03:24:11.448Z,102449.88
2023-05-04T03:25:13.059Z,102445.59
2023-05-04T03:26:14.705Z,102439.47
2023-05-04T03:27:16.456Z,102446.38
2023-05-04T03:28:18.028Z,102448.97
2023-05-04T03:29:19.708Z,102448.00
2023-05-04T03:30:23.107Z,102450.59
2023-05-04T03:31:25.113Z,102453.19
2023-05-04T03:32:28.078Z,102455.78
2023-05-04T03:33:29.735Z,102448.88
2023-05-04T03:34:31.592Z,102451.38
2023-05-04T03:35:37.211Z,102451.31
2023-05-04T03:36:38.972Z,102450.44
2023-05-04T03:37:40.725Z,102452.16
2023-05-04T03:38:42.440Z,102441.72
2023-05-04T03:39:44.463Z,102445.16
2023-05-04T03:40:46.189Z,102446.84
2023-05-04T03:41:49.873Z,102447.72
2023-05-04T03:42:54.445Z,102444.22
2023-05-04T03:43:57.267Z,102449.41
2023-05-04T03:44:58.944Z,102453.72
2023-05-04T03:46:00.588Z,102452.81
2023-05-04T03:47:02.281Z,102452.81
2023-05-04T03:48:05.313Z,102449.34
2023-05-04T03:49:06.944Z,102451.06
2023-05-04T03:50:09.624Z,102456.25
2023-05-04T03:51:11.413Z,102457.06
2023-05-04T03:52:13.003Z,102461.38
2023-05-04T03:53:14.681Z,102461.38
2023-05-04T03:54:16.851Z,102457.00
2023-05-04T03:55:18.572Z,102459.59
2023-05-04T03:56:24.254Z,102451.84
2023-05-04T03:57:25.867Z,102459.59
2023-05-04T03:58:30.009Z,102469.19
2023-05-04T03:59:34.510Z,102460.53
2023-05-04T04:00:41.186Z,102460.56
2023-05-04T04:01:47.467Z,102457.97
2023-05-04T04:02:49.175Z,102457.97
2023-05-04T04:03:54.238Z,102461.44
2023-05-04T04:04:55.985Z,102464.88
2023-05-04T04:05:57.740Z,102467.63
2023-05-04T04:07:01.456Z,102465.44
2023-05-04T04:08:05.434Z,102463.94
2023-05-04T04:09:07.533Z,102462.50
2023-05-04T04:10:10.014Z,102461.03
2023-05-04T04:11:11.618Z,102461.25
2023-05-04T04:12:13.340Z,102458.13
2023-05-04T04:13:15.053Z,102455.88
2023-05-04T04:14:16.764Z,102455.38
2023-05-04T04:15:18.360Z,102459.19
2023-05-04T04:16:22.939Z,102453.41
2023-05-04T04:17:24.722Z,102453.66
2023-05-04T04:18:26.289Z,102453.91
2023-05-04T04:19:27.875Z,102460.16
2023-05-04T04:20:29.652Z,102457.75
2023-05-04T04:21:31.445Z,102452.75
2023-05-04T04:22:33.055Z,102458.94
2023-05-04T04:23:34.670Z,102456.56
2023-05-04T04:24:36.393Z,102456.66
2023-05-04T04:25:38.351Z,102463.66
2023-05-04T04:26:40.137Z,102461.94
2023-05-04T04:27:41.801Z,102463.63
2023-05-04T04:28:44.851Z,102465.22
2023-05-04T04:29:46.516Z,102461.63
2023-05-04T04:30:48.228Z,102459.78
2023-05-04T04:31:49.948Z,102465.66
2023-05-04T04:32:51.672Z,102467.22
2023-05-04T04:33:53.343Z,102471.41
2023-05-04T04:34:54.958Z,102466.97
2023-05-04T04:35:56.618Z,102471.16
2023-05-04T04:36:58.807Z,102470.97
2023-05-04T04:38:03.367Z,102468.28
2023-05-04T04:39:05.966Z,102473.44
2023-05-04T04:40:08.874Z,102473.34
2023-05-04T04:41:10.584Z,102469.78
2023-05-04T04:42:13.588Z,102461.97
2023-05-04T04:43:15.284Z,102468.06
2023-05-04T04:44:16.889Z,102467.97
2023-05-04T04:45:20.585Z,102463.66
2023-05-04T04:46:22.488Z,102457.56
2023-05-04T04:47:24.107Z,102458.47
2023-05-04T04:48:26.038Z,102450.72
2023-05-04T04:49:27.934Z,102450.78
2023-05-04T04:50:30.149Z,102454.22
2023-05-04T04:51:32.606Z,102448.19
2023-05-04T04:52:34.787Z,102455.19
2023-05-04T04:53:36.500Z,102462.97
2023-05-04T04:54:38.779Z,102457.81
2023-05-04T04:55:41.827Z,102451.81
2023-05-04T04:56:44.914Z,102442.34
2023-05-04T04:57:46.774Z,102442.44
2023-05-04T04:58:48.605Z,102444.28
2023-05-04T04:59:50.962Z,102446.09
2023-05-04T05:00:53.678Z,102449.69
2023-05-04T05:01:56.164Z,102454.97
2023-05-04T05:02:57.993Z,102455.97
2023-05-04T05:04:00.126Z,102449.97
2023-05-04T05:05:01.790Z,102456.19
2023-05-04T05:06:04.027Z,102457.22
2023-05-04T05:07:08.950Z,102455.56
2023-05-04T05:08:11.396Z,102451.41
2023-05-04T05:09:13.587Z,102449.84
2023-05-04T05:10:15.383Z,102453.41
2023-05-04T05:11:17.276Z,102451.81
2023-05-04T05:12:18.916Z,102451.09
2023-05-04T05:13:20.537Z,102452.94
2023-05-04T05:14:22.395Z,102457.44
2023-05-04T05:15:24.714Z,102460.09
2023-05-04T05:16:26.927Z,102453.38
2023-05-04T05:17:28.651Z,102447.44
2023-05-04T05:18:30.320Z,102459.75
2023-05-04T05:19:37.389Z,102455.56
2023-05-04T05:20:39.478Z,102453.19
2023-05-04T05:21:41.036Z,102449.00
2023-05-04T05:22:43.128Z,102452.66
2023-05-04T05:23:45.088Z,102452.78
2023-05-04T05:24:46.936Z,102454.69
2023-05-04T05:25:48.630Z,102457.47
2023-05-04T05:26:52.903Z,102458.50
2023-05-04T05:27:54.814Z,102465.66
2023-05-04T05:28:56.924Z,102459.75
2023-05-04T05:29:59.314Z,102466.03
2023-05-04T05:31:01.027Z,102459.25
2023-05-04T05:32:04.464Z,102459.50
2023-05-04T05:33:06.622Z,102459.69
2023-05-04T05:34:08.484Z,102460.75
2023-05-04T05:35:10.497Z,102461.84
2023-05-04T05:36:12.356Z,102459.47
2023-05-04T05:37:14.193Z,102457.91
2023-05-04T05:38:16.304Z,102451.22
2023-05-04T05:39:18.247Z,102448.00
2023-05-04T05:40:20.236Z,102439.47
2023-05-04T05:41:22.683Z,102444.91
2023-05-04T05:42:24.535Z,102442.41
2023-05-04T05:43:29.334Z,102445.25
2023-05-04T05:44:31.043Z,102441.06
2023-05-04T05:45:33.036Z,102441.22
2023-05-04T05:46:35.192Z,102437.03
2023-05-04T05:47:37.519Z,102433.75
2023-05-04T05:48:39.550Z,102436.47
2023-05-04T05:49:41.907Z,102442.69
2023-05-04T05:50:45.117Z,102442.81
2023-05-04T05:51:47.054Z,102453.34
2023-05-04T05:52:48.804Z,102446.41
2023-05-04T05:53:50.598Z,102443.88
2023-05-04T05:54:52.597Z,102444.75
2023-05-04T05:55:55.568Z,102448.31
2023-05-04T05:56:57.611Z,102447.50
2023-05-04T05:57:59.662Z,102443.25
2023-05-04T05:59:01.316Z,102448.53
2023-05-04T06:00:05.212Z,102447.78
2023-05-04T06:01:14.287Z,102450.53
2023-05-04T06:02:15.906Z,102450.66
2023-05-04T06:03:17.719Z,102451.59
2023-05-04T06:04:19.620Z,102445.59
2023-05-04T06:05:21.375Z,102450.94
2023-05-04T06:06:22.976Z,102451.03
2023-05-04T06:07:25.003Z,102455.44
2023-05-04T06:08:26.602Z,102457.25
2023-05-04T06:09:28.160Z,102451.22
2023-05-04T06:10:30.102Z,102453.94
2023-05-04T06:11:31.908Z,102451.41
2023-05-04T06:12:33.603Z,102445.38
2023-05-04T06:13:35.240Z,102443.78
2023-05-04T06:14:36.912Z,102438.66
2023-05-04T06:15:38.802Z,102443.16
2023-05-04T06:16:40.477Z,102436.25
2023-05-04T06:17:42.267Z,102445.06
2023-05-04T06:18:43.948Z,102435.56
2023-05-04T06:19:48.088Z,102436.44
2023-05-04T06:20:58.240Z,102441.78
2023-05-04T06:21:59.719Z,102442.66
2023-05-04T06:23:01.323Z,102438.38
2023-05-04T06:24:02.882Z,102439.34
2023-05-04T06:25:07.182Z,102438.56
2023-05-04T06:26:09.872Z,102444.75
2023-05-04T06:27:11.537Z,102439.53
2023-05-04T06:28:13.366Z,102438.69
2023-05-04T06:29:14.968Z,102437.84
2023-05-04T06:30:16.726Z,102436.16
2023-05-04T06:31:18.500Z,102444.88
2023-05-04T06:32:20.169Z,102445.81
2023-05-04T06:33:21.792Z,102444.97
2023-05-04T06:34:23.359Z,102448.47
2023-05-04T06:35:29.716Z,102442.41
2023-05-04T06:36:31.444Z,102452.03
2023-05-04T06:37:33.054Z,102446.81
2023-05-04T06:38:37.703Z,102441.63
2023-05-04T06:39:40.805Z,102445.13
2023-05-04T06:40:42.742Z,102440.78
2023-05-04T06:41:44.460Z,102447.75
2023-05-04T06:42:46.169Z,102438.19
2023-05-04T06:43:47.886Z,102438.22
2023-05-04T06:44:49.688Z,102434.75
2023-05-04T06:45:51.434Z,102435.69
2023-05-04T06:46:53.851Z,102437.44
2023-05-04T06:47:55.515Z,102436.59
2023-05-04T06:48:58.186Z,102434.00
2023-05-04T06:50:00.217Z,102434.91
2023-05-04T06:51:03.067Z,102425.31
2023-05-04T06:52:05.017Z,102433.22
2023-05-04T06:53:11.733Z,102430.63
2023-05-04T06:54:13.330Z,102427.16
2023-05-04T06:55:15.011Z,102427.16
2023-05-04T06:56:17.037Z,102430.69
2023-05-04T06:57:18.639Z,102425.47
2023-05-04T06:58:21.784Z,102432.47
2023-05-04T06:59:23.446Z,102428.13
2023-05-04T07:00:25.603Z,102421.97
2023-05-04T07:01:27.318Z,102429.00
2023-05-04T07:02:28.975Z,102429.91
2023-05-04T07:03:31.026Z,102422.06
2023-05-04T07:04:32.824Z,102432.56
2023-05-04T07:05:37.218Z,102425.59
2023-05-04T07:06:39.651Z,102426.50
2023-05-04T07:07:41.300Z,102429.13
2023-05-04T07:08:42.877Z,102427.38
2023-05-04T07:09:44.572Z,102423.88
2023-05-04T07:10:46.788Z,102426.50
2023-05-04T07:11:48.688Z,102416.91
2023-05-04T07:12:50.905Z,102415.16
2023-05-04T07:13:52.722Z,102418.66
2023-05-04T07:14:54.567Z,102411.66
2023-05-04T07:15:56.497Z,102416.03
2023-05-04T07:16:58.067Z,102417.84
2023-05-04T07:17:59.955Z,102417.84
2023-05-04T07:19:01.990Z,102417.00
2023-05-04T07:20:05.131Z,102416.13
2023-05-04T07:21:26.924Z,102419.63
2023-05-04T07:22:31.220Z,102413.47
2023-05-04T07:23:32.917Z,102413.47
2023-05-04T07:24:34.730Z,102403.00
2023-05-04T07:25:36.446Z,102411.72
2023-05-04T07:26:38.038Z,102412.63
2023-05-04T07:27:41.492Z,102413.47
2023-05-04T07:28:46.736Z,102404.72
2023-05-04T07:29:48.472Z,102399.47
2023-05-04T07:30:50.268Z,102405.59
2023-05-04T07:31:52.017Z,102405.59
2023-05-04T07:32:54.096Z,102406.47
2023-05-04T07:33:56.003Z,102401.22
2023-05-04T07:34:57.852Z,102411.75
2023-05-04T07:35:59.623Z,102404.72
2023-05-04T07:37:03.705Z,102405.59
2023-05-04T07:38:05.470Z,102402.09
2023-05-04T07:39:07.664Z,102412.59
2023-05-04T07:40:10.340Z,102408.22
2023-05-04T07:41:12.017Z,102407.34
2023-05-04T07:42:13.944Z,102414.34
2023-05-04T07:43:15.532Z,102418.69
2023-05-04T07:44:17.582Z,102408.19
2023-05-04T07:45:19.115Z,102402.03
2023-05-04T07:46:21.051Z,102407.28
2023-05-04T07:47:24.327Z,102395.88
2023-05-04T07:48:26.734Z,102400.25
2023-05-04T07:49:28.562Z,102401.13
2023-05-04T07:50:30.192Z,102395.81
2023-05-04T07:51:31.829Z,102390.50
2023-05-04T07:52:33.514Z,102396.66
2023-05-04T07:53:35.372Z,102394.03
2023-05-04T07:54:37.023Z,102394.00
2023-05-04T07:55:40.167Z,102393.09
2023-05-04T07:56:41.772Z,102387.81
2023-05-04T07:57:43.371Z,102383.47
2023-05-04T07:58:45.005Z,102383.44
2023-05-04T07:59:47.040Z,102386.94
2023-05-04T08:00:48.676Z,102373.75
2023-05-04T08:01:50.355Z,102376.38
2023-05-04T08:02:52.124Z,102385.16
2023-05-04T08:03:53.786Z,102379.00
2023-05-04T08:04:56.143Z,102379.88
2023-05-04T08:05:58.634Z,102375.50
2023-05-04T08:07:00.302Z,102380.75
2023-05-04T08:08:01.936Z,102379.88
2023-05-04T08:09:03.504Z,102383.41
2023-05-04T08:10:06.002Z,102380.78
2023-05-04T08:11:19.162Z,102369.34
2023-05-04T08:12:23.905Z,102371.09
2023-05-04T08:13:25.514Z,102372.81
2023-05-04T08:14:27.300Z,102369.28
2023-05-04T08:15:29.326Z,102370.97
2023-05-04T08:16:32.474Z,102376.19
2023-05-04T08:17:35.005Z,102374.47
2023-05-04T08:18:37.225Z,102368.28
2023-05-04T08:19:38.845Z,102374.38
2023-05-04T08:20:40.521Z,102367.38
2023-05-04T08:21:42.366Z,102374.38
2023-05-04T08:22:43.935Z,102376.16
2023-05-04T08:23:45.519Z,102372.63
2023-05-04T08:24:47.698Z,102372.63
2023-05-04T08:25:49.437Z,102362.94
2023-05-04T08:27:03.652Z,102370.78
2023-05-04T08:28:08.613Z,102366.38
2023-05-04T08:29:12.924Z,102369.84
2023-05-04T08:30:14.772Z,102370.66
2023-05-04T08:31:19.716Z,102364.47
2023-05-04T08:32:21.332Z,102363.53
2023-05-04T08:33:23.448Z,102354.75
2023-05-04T08:34:25.690Z,102362.59
2023-05-04T08:35:28.789Z,102354.66
2023-05-04T08:36:30.620Z,102357.25
2023-05-04T08:37:32.698Z,102352.84
2023-05-04T08:38:34.486Z,102348.44
2023-05-04T08:39:36.173Z,102349.25
2023-05-04T08:40:42.177Z,102344.84
2023-05-04T08:41:44.409Z,102351.88
2023-05-04T08:42:50.486Z,102345.72
2023-05-04T08:43:52.727Z,102349.25
2023-05-04T08:44:57.444Z,102336.94
2023-05-04T08:45:59.289Z,102346.50
2023-05-04T08:47:04.674Z,102347.34
2023-05-04T08:48:10.044Z,102350.84
2023-05-04T08:49:14.218Z,102339.44
2023-05-04T08:50:16.285Z,102340.28
2023-05-04T08:51:18.980Z,102338.50
2023-05-04T08:52:24.430Z,102337.59
2023-05-04T08:53:27.010Z,102333.16
2023-05-04T08:54:29.663Z,102334.84
2023-05-04T08:55:36.934Z,102331.25
2023-05-04T08:56:40.596Z,102334.72
2023-05-04T08:57:44.443Z,102333.72
2023-05-04T08:58:50.979Z,102331.06
2023-05-04T08:59:55.126Z,102319.56
2023-05-04T09:00:58.889Z,102330.97
2023-05-04T09:02:01.598Z,102327.44
2023-05-04T09:03:04.902Z,102329.16
2023-05-04T09:04:06.709Z,102329.09
2023-05-04T09:05:11.470Z,102320.25
2023-05-04T09:06:14.835Z,102325.47
2023-05-04T09:07:18.546Z,102322.91
2023-05-04T09:08:20.849Z,102322.06
2023-05-04T09:09:26.565Z,102328.25
2023-05-04T09:10:29.806Z,102325.72
2023-05-04T09:11:31.494Z,102324.84
2023-05-04T09:12:33.638Z,102328.38
2023-05-04T09:13:35.683Z,102323.91
2023-05-04T09:14:37.393Z,102326.50
2023-05-04T09:15:39.040Z,102331.66
2023-05-04T09:16:40.846Z,102329.78
2023-05-04T09:17:56.914Z,102321.75
2023-05-04T09:18:59.997Z,102327.84
2023-05-04T09:20:03.031Z,102320.78
2023-05-04T09:21:05.018Z,102319.84
2023-05-04T09:22:17.980Z,102314.66
2023-05-04T09:23:21.020Z,102321.66
2023-05-04T09:24:30.222Z,102322.56
2023-05-04T09:25:32.188Z,102322.59
2023-05-04T09:26:34.349Z,102321.63
2023-05-04T09:27:36.027Z,102319.78
2023-05-04T09:28:39.542Z,102326.81
2023-05-04T09:29:41.937Z,102324.28
2023-05-04T09:30:45.680Z,102317.41
2023-05-04T09:31:49.602Z,102312.19
2023-05-04T09:32:51.445Z,102318.31
2023-05-04T09:33:53.818Z,102317.41
2023-05-04T09:34:55.612Z,102315.59
2023-05-04T09:35:59.137Z,102312.00
2023-05-04T09:37:04.516Z,102309.38
2023-05-04T09:38:07.428Z,102318.97
2023-05-04T09:39:12.896Z,102311.03
2023-05-04T09:40:18.431Z,102314.34
2023-05-04T09:41:31.800Z,102316.09
2023-05-04T09:42:33.685Z,102307.28
2023-05-04T09:43:42.468Z,102301.97
2023-05-04T09:44:44.100Z,102301.94
2023-05-04T09:45:47.604Z,102300.19
2023-05-04T09:46:56.703Z,102300.22
2023-05-04T09:47:58.728Z,102305.41
2023-05-04T09:49:00.817Z,102298.34
2023-05-04T09:50:19.759Z,102293.13
2023-05-04T09:51:27.565Z,102291.38
2023-05-04T09:52:31.977Z,102293.06
2023-05-04T09:53:36.833Z,102292.13
2023-05-04T09:54:42.840Z,102283.25
2023-05-04T09:55:46.925Z,102290.19
2023-05-04T09:56:55.359Z,102288.28
2023-05-04T09:57:57.425Z,102292.56
2023-05-04T09:59:00.157Z,102290.66
2023-05-04T10:00:04.376Z,102287.06
2023-05-04T10:01:08.983Z,102277.28
2023-05-04T10:02:21.740Z,102284.19
2023-05-04T10:03:26.949Z,102291.09
2023-05-04T10:04:28.772Z,102286.63
2023-05-04T10:05:30.588Z,102277.06
2023-05-04T10:06:33.000Z,102283.16
2023-05-04T10:07:35.583Z,102280.38
2023-05-04T10:08:40.234Z,102283.81
2023-05-04T10:09:42.230Z,102280.22
2023-05-04T10:10:43.966Z,102279.19
2023-05-04T10:11:45.606Z,102276.53
2023-05-04T10:12:47.418Z,102279.13
2023-05-04T10:13:49.656Z,102274.56
2023-05-04T10:14:51.919Z,102281.53
2023-05-04T10:16:24.899Z,102273.75
2023-05-04T10:17:51.486Z,102272.94
2023-05-04T10:19:09.412Z,102266.84
2023-05-04T10:20:28.958Z,102270.34
2023-05-04T10:21:50.966Z,102268.50
2023-05-04T10:23:14.428Z,102269.31
2023-05-04T10:24:46.416Z,102269.34
2023-05-04T10:26:26.313Z,102278.09
2023-05-04T10:27:40.102Z,102278.00
2023-05-04T10:29:23.619Z,102274.34
2023-05-04T10:30:25.866Z,102268.13
2023-05-04T10:31:39.518Z,102266.41
2023-05-04T10:32:41.683Z,102262.06
2023-05-04T10:33:45.418Z,102262.03
2023-05-04T10:34:47.615Z,102261.06
2023-05-04T10:35:55.710Z,102276.97
2023-05-04T10:36:58.984Z,102263.94
2023-05-04T10:38:00.920Z,102260.47
2023-05-04T10:39:03.786Z,102266.59
2023-05-04T10:40:08.457Z,102270.97
2023-05-04T10:41:17.432Z,102266.53
2023-05-04T10:42:19.100Z,102258.59
2023-05-04T10:43:24.196Z,102251.47
2023-05-04T10:44:27.636Z,102258.34
2023-05-04T10:45:42.466Z,102257.34
2023-05-04T10:46:44.469Z,102259.84
2023-05-04T10:47:46.048Z,102248.22
2023-05-04T10:48:49.470Z,102255.09
2023-05-04T10:50:11.006Z,102243.50
2023-05-04T10:51:23.688Z,102245.13
2023-05-04T10:52:25.950Z,102240.66
2023-05-04T10:53:34.605Z,102237.06
2023-05-04T10:54:40.361Z,102241.38
2023-05-04T10:55:48.945Z,102236.16
2023-05-04T10:57:04.205Z,102241.59
2023-05-04T10:58:06.244Z,102235.66
2023-05-04T10:59:10.334Z,102227.75
2023-05-04T11:00:12.626Z,102224.22
2023-05-04T11:01:14.389Z,102230.41
2023-05-04T11:02:25.076Z,102226.03
2023-05-04T11:03:27.244Z,102225.09
2023-05-04T11:04:30.276Z,102220.75
2023-05-04T11:05:52.746Z,102219.84
2023-05-04T11:07:12.161Z,102217.94
2023-05-04T11:08:27.168Z,102231.25
2023-05-04T11:09:41.946Z,102217.13
2023-05-04T11:10:44.563Z,102209.91
2023-05-04T11:11:46.604Z,102208.00
2023-05-04T11:12:48.682Z,102204.41
2023-05-04T11:13:50.599Z,102206.03
2023-05-04T11:14:52.446Z,102200.63
2023-05-04T11:15:54.469Z,102204.09
2023-05-04T11:18:41.171Z,102203.13
2023-05-04T11:19:49.667Z,102207.44
2023-05-04T11:20:51.393Z,102204.97
2023-05-04T11:21:53.142Z,102203.19
2023-05-04T11:22:58.806Z,102201.28
2023-05-04T11:24:00.821Z,102202.91
2023-05-04T11:25:02.595Z,102200.06
2023-05-04T11:26:06.678Z,102204.38
2023-05-04T11:27:20.316Z,102200.94
2023-05-04T11:28:33.308Z,102201.03
2023-05-04T11:29:34.982Z,102192.13
2023-05-04T11:30:38.581Z,102191.94
2023-05-04T11:31:41.445Z,102194.50
2023-05-04T11:32:46.636Z,102198.00
2023-05-04T11:33:54.489Z,102194.28
2023-05-04T11:34:56.219Z,102192.47
2023-05-04T11:36:03.779Z,102194.13
2023-05-04T11:37:06.594Z,102199.19
2023-05-04T11:38:08.433Z,102190.31
2023-05-04T11:39:13.991Z,102193.69
2023-05-04T11:40:21.403Z,102187.41
2023-05-04T11:41:26.291Z,102197.91
2023-05-04T11:42:27.976Z,102191.88
2023-05-04T11:43:30.602Z,102188.59
2023-05-04T11:44:32.482Z,102186.91
2023-05-04T11:45:36.513Z,102189.56
2023-05-04T11:46:38.752Z,102185.13
2023-05-04T11:47:41.166Z,102188.59
2023-05-04T11:48:43.018Z,102182.25
2023-05-04T11:49:45.775Z,102177.81
2023-05-04T11:50:48.115Z,102183.09
2023-05-04T11:51:49.922Z,102184.00
2023-05-04T11:52:51.982Z,102173.78
2023-05-04T11:53:53.599Z,102181.72
2023-05-04T11:54:57.295Z,102173.09
2023-05-04T11:56:02.662Z,102169.44
2023-05-04T11:57:04.956Z,102174.53
2023-05-04T11:58:11.128Z,102174.25
2023-05-04T11:59:12.978Z,102172.25
2023-05-04T12:00:15.094Z,102165.91
2023-05-04T12:01:17.663Z,102171.06
2023-05-04T12:02:19.911Z,102168.13
2023-05-04T12:03:35.876Z,102166.31
2023-05-04T12:04:41.378Z,102161.06
2023-05-04T12:05:52.481Z,102160.03